Time;durP1;ratioP1;P1;durP2;ratioP2;P2;SDS_P1;SDS_P2;PMS_P1;PMS_P2;Temp;Humidity;BMP_temperature;BMP_pressure;BME280_temperature;BME280_humidity;BME280_pressure;Samples;Min_cycle;Max_cycle;Signal;HPM_P1;HPM_P2
2021/06/28 00:01:30;;;;;;;12.85;9.25;;;;;;;20.98;60.24;100303.34;5040156;27;97191;-84
2021/06/28 00:03:55;;;;;;;10.98;9.88;;;;;;;20.97;60.38;100304.28;5041610;27;97054;-84
2021/06/28 00:06:21;;;;;;;11.50;9.48;;;;;;;20.99;59.62;100305.88;5037040;27;101164;-85
2021/06/28 00:08:47;;;;;;;12.73;9.68;;;;;;;21.02;59.99;100304.78;5037608;27;101514;-84
2021/06/28 00:11:13;;;;;;;10.48;9.25;;;;;;;21.07;60.21;100301.75;5056733;27;96787;-85
2021/06/28 00:13:43;;;;;;;10.23;9.13;;;;;;;21.15;59.79;100297.53;5038583;27;96796;-83
2021/06/28 00:16:12;;;;;;;13.45;9.07;;;;;;;21.25;59.12;100303.81;5054342;27;101056;-85
2021/06/28 00:18:38;;;;;;;10.43;9.32;;;;;;;21.06;59.84;100298.25;5050873;27;98259;-85
2021/06/28 00:21:05;;;;;;;11.70;9.38;;;;;;;20.96;60.42;100298.09;5058199;27;97052;-84
2021/06/28 00:23:31;;;;;;;10.20;9.13;;;;;;;20.93;60.22;100303.69;5038632;27;97178;-84
2021/06/28 00:25:56;;;;;;;11.27;9.95;;;;;;;20.80;60.55;100298.44;5074903;27;98499;-83
2021/06/28 00:28:22;;;;;;;9.70;8.75;;;;;;;20.73;60.75;100293.69;5057534;27;98108;-84
2021/06/28 00:30:49;;;;;;;11.90;9.90;;;;;;;20.66;60.70;100304.00;5075182;27;96944;-83
2021/06/28 00:33:17;;;;;;;12.35;9.55;;;;;;;20.76;60.38;100310.31;5044140;27;97005;-86
2021/06/28 00:35:43;;;;;;;16.73;9.90;;;;;;;20.70;60.73;100302.78;5074511;27;97973;-83
2021/06/28 00:38:09;;;;;;;10.18;8.50;;;;;;;20.80;60.61;100302.94;5055609;27;101312;-83
2021/06/28 00:40:36;;;;;;;10.63;9.48;;;;;;;20.81;60.70;100296.63;5037296;27;96648;-84
2021/06/28 00:43:01;;;;;;;12.32;9.55;;;;;;;20.80;60.90;100303.78;5073321;27;97103;-84
2021/06/28 00:45:30;;;;;;;9.57;8.43;;;;;;;20.78;61.22;100305.72;5057025;27;101332;-84
2021/06/28 00:48:06;;;;;;;10.05;8.98;;;;;;;20.65;61.52;100304.94;5054006;27;97958;-84
2021/06/28 00:50:34;;;;;;;10.70;9.70;;;;;;;20.63;61.87;100306.06;5047341;27;96734;-84
2021/06/28 00:53:12;;;;;;;12.18;9.65;;;;;;;20.64;61.90;100313.06;5058382;27;96912;-83
2021/06/28 00:55:40;;;;;;;11.70;9.82;;;;;;;20.56;61.78;100314.50;5053458;27;101149;-84
2021/06/28 00:58:09;;;;;;;10.98;8.60;;;;;;;20.45;61.92;100317.13;5054055;27;98331;-84
2021/06/28 01:00:35;;;;;;;10.85;8.82;;;;;;;20.43;62.01;100328.84;5069824;27;96685;-84
2021/06/28 01:03:02;;;;;;;9.23;8.32;;;;;;;20.46;61.88;100310.81;5057520;27;96811;-83
2021/06/28 01:05:31;;;;;;;10.40;9.32;;;;;;;20.42;61.90;100313.81;5056930;27;101254;-84
2021/06/28 01:07:57;;;;;;;11.65;8.93;;;;;;;20.31;62.40;100320.81;5044196;27;100078;-83
2021/06/28 01:10:23;;;;;;;12.32;8.73;;;;;;;20.46;62.19;100320.63;5061735;27;97106;-84
2021/06/28 01:12:51;;;;;;;9.52;8.55;;;;;;;20.53;61.84;100311.22;5053812;27;97053;-84
2021/06/28 01:15:17;;;;;;;10.32;9.02;;;;;;;20.62;61.75;100315.84;5043286;27;101330;-85
2021/06/28 01:17:44;;;;;;;10.82;9.25;;;;;;;20.38;62.62;100320.34;5040263;27;100207;-84
2021/06/28 01:20:11;;;;;;;9.65;8.65;;;;;;;20.29;62.72;100322.72;5055670;27;96645;-83
2021/06/28 01:22:39;;;;;;;12.68;9.45;;;;;;;20.24;62.88;100316.88;5056941;27;97298;-84
2021/06/28 01:25:07;;;;;;;11.95;9.80;;;;;;;20.19;62.92;100323.50;5071951;27;98603;-84
2021/06/28 01:27:33;;;;;;;11.35;9.48;;;;;;;20.17;62.89;100315.66;5060272;27;97986;-84
2021/06/28 01:29:58;;;;;;;11.63;10.32;;;;;;;20.15;62.77;100314.06;5060684;27;96807;-83
2021/06/28 01:32:25;;;;;;;14.20;9.98;;;;;;;20.03;63.31;100313.16;5043019;27;96885;-85
2021/06/28 01:34:52;;;;;;;10.68;9.73;;;;;;;20.05;63.38;100319.22;5077172;27;98259;-84
2021/06/28 01:37:22;;;;;;;12.82;9.65;;;;;;;20.04;63.55;100325.50;5059737;27;101115;-85
2021/06/28 01:39:49;;;;;;;10.73;9.73;;;;;;;20.03;63.62;100313.16;5042493;27;97010;-83
2021/06/28 01:42:15;;;;;;;10.65;9.23;;;;;;;20.02;63.81;100312.31;5063429;27;97134;-84
2021/06/28 01:44:41;;;;;;;11.52;10.18;;;;;;;19.94;64.10;100311.16;5059706;27;101521;-84
2021/06/28 01:47:06;;;;;;;13.15;10.05;;;;;;;20.07;63.39;100309.28;5059905;27;101850;-84
2021/06/28 01:49:32;;;;;;;13.73;10.40;;;;;;;20.01;63.77;100313.28;5057979;27;96997;-84
2021/06/28 01:51:58;;;;;;;12.25;10.30;;;;;;;19.97;63.58;100313.59;5040070;27;97097;-84
2021/06/28 01:54:27;;;;;;;12.45;10.35;;;;;;;19.98;63.87;100310.81;5038039;27;101541;-85
2021/06/28 01:56:52;;;;;;;12.00;10.80;;;;;;;19.92;63.92;100305.09;5039549;27;101131;-84
2021/06/28 01:59:18;;;;;;;12.07;11.00;;;;;;;19.93;63.77;100306.81;5038040;27;97188;-86
2021/06/28 02:01:43;;;;;;;11.40;10.27;;;;;;;19.86;64.08;100303.72;5062599;27;96909;-84
2021/06/28 02:04:17;;;;;;;11.18;9.77;;;;;;;19.89;64.09;100311.50;5053727;27;101089;-85
2021/06/28 02:06:42;;;;;;;12.13;10.20;;;;;;;19.87;64.18;100310.78;5059834;27;101128;-84
2021/06/28 02:09:08;;;;;;;13.77;9.75;;;;;;;19.85;64.40;100307.38;5042415;27;96635;-83
2021/06/28 02:11:33;;;;;;;11.90;10.63;;;;;;;19.88;64.13;100304.47;5056019;27;96990;-85
2021/06/28 02:13:59;;;;;;;11.55;10.45;;;;;;;19.85;64.04;100302.03;5055119;27;101007;-84
2021/06/28 02:16:24;;;;;;;12.23;10.77;;;;;;;19.82;64.51;100304.94;5075390;27;98476;-85
2021/06/28 02:18:50;;;;;;;12.23;10.20;;;;;;;19.89;64.16;100309.66;5054918;27;96714;-85
2021/06/28 02:21:15;;;;;;;12.32;11.10;;;;;;;19.89;64.09;100308.81;5046022;27;97401;-84
2021/06/28 02:23:41;;;;;;;11.40;10.25;;;;;;;19.74;64.43;100302.81;5051558;27;101533;-85
2021/06/28 02:26:09;;;;;;;12.25;10.07;;;;;;;19.64;64.53;100302.59;5038208;27;101447;-86
2021/06/28 02:28:38;;;;;;;11.93;10.60;;;;;;;19.71;64.45;100300.38;5038621;27;96607;-85
2021/06/28 02:31:06;;;;;;;14.82;9.38;;;;;;;19.65;64.86;100303.47;5030502;27;96907;-84
2021/06/28 02:33:32;;;;;;;13.32;10.07;;;;;;;19.61;64.79;100297.50;5038580;27;101579;-85
2021/06/28 02:35:58;;;;;;;12.55;9.50;;;;;;;19.58;64.94;100303.03;5039283;27;98344;-84
2021/06/28 02:38:24;;;;;;;12.38;10.43;;;;;;;19.61;64.83;100301.97;5026670;27;97714;-85
2021/06/28 02:40:51;;;;;;;14.50;10.48;;;;;;;19.62;64.86;100293.03;5039041;27;96905;-84
2021/06/28 02:43:17;;;;;;;16.13;10.85;;;;;;;19.50;65.06;100294.75;5036562;27;101362;-85
2021/06/28 02:45:43;;;;;;;10.50;9.50;;;;;;;19.46;65.28;100285.31;5067196;27;98834;-84
2021/06/28 02:48:09;;;;;;;11.52;10.32;;;;;;;19.40;65.28;100291.03;5039028;27;96976;-85
2021/06/28 02:50:35;;;;;;;16.05;10.93;;;;;;;19.53;65.14;100291.03;5050242;27;97181;-85
2021/06/28 02:53:00;;;;;;;13.68;11.23;;;;;;;19.62;64.40;100290.34;5041897;27;101158;-84
2021/06/28 02:55:26;;;;;;;13.13;10.20;;;;;;;19.58;64.86;100289.72;5054862;27;100878;-85
2021/06/28 02:57:52;;;;;;;12.95;10.95;;;;;;;19.48;64.92;100285.16;5059248;27;97023;-83
2021/06/28 03:00:18;;;;;;;13.60;11.32;;;;;;;19.44;65.24;100280.06;5055806;27;96974;-86
2021/06/28 03:02:44;;;;;;;12.25;10.98;;;;;;;19.47;65.15;100279.00;5052981;27;100536;-84
2021/06/28 03:05:10;;;;;;;11.18;10.02;;;;;;;19.52;65.03;100284.84;5029360;27;100399;-84
2021/06/28 03:07:37;;;;;;;15.20;11.10;;;;;;;19.48;65.08;100283.34;5038162;27;97521;-84
2021/06/28 03:10:05;;;;;;;12.93;11.52;;;;;;;19.49;65.31;100281.53;5050290;27;97403;-84
2021/06/28 03:12:31;;;;;;;14.60;10.30;;;;;;;19.52;65.18;100284.84;5041067;27;101475;-84
2021/06/28 03:14:56;;;;;;;13.75;10.25;;;;;;;19.58;64.98;100280.91;5075943;27;98021;-84
2021/06/28 03:17:22;;;;;;;13.55;10.82;;;;;;;19.61;64.63;100283.34;5038166;27;96709;-85
2021/06/28 03:19:47;;;;;;;14.40;11.15;;;;;;;19.49;65.26;100282.41;5041717;27;96906;-84
2021/06/28 03:22:16;;;;;;;15.63;10.48;;;;;;;19.56;65.04;100283.66;5040733;27;101536;-84
2021/06/28 03:24:41;;;;;;;14.98;10.10;;;;;;;19.62;65.07;100293.88;5055106;27;98380;-84
2021/06/28 03:27:07;;;;;;;12.32;10.82;;;;;;;19.62;64.98;100288.53;5036086;27;97110;-85
2021/06/28 03:29:32;;;;;;;13.77;10.23;;;;;;;19.61;64.87;100294.84;5058535;27;97068;-83
2021/06/28 03:31:58;;;;;;;14.35;11.48;;;;;;;19.59;64.75;100293.25;5053953;27;100235;-84
2021/06/28 03:34:23;;;;;;;12.15;10.90;;;;;;;19.53;64.71;100299.84;5037417;27;101279;-85
2021/06/28 03:36:49;;;;;;;14.73;11.75;;;;;;;19.55;64.48;100292.63;5052605;27;96725;-83
2021/06/28 03:39:14;;;;;;;12.25;10.95;;;;;;;19.66;63.86;100291.84;5038607;27;96939;-84
2021/06/28 03:41:40;;;;;;;13.10;11.10;;;;;;;19.53;64.46;100301.66;5040467;27;100399;-83
2021/06/28 03:44:06;;;;;;;14.68;10.80;;;;;;;19.61;64.00;100300.16;5054453;27;101868;-83
2021/06/28 03:46:32;;;;;;;12.68;9.98;;;;;;;19.61;64.07;100304.63;5040974;27;97190;-84
2021/06/28 03:48:57;;;;;;;15.57;10.30;;;;;;;19.73;63.56;100310.94;5041667;27;97002;-84
2021/06/28 03:51:23;;;;;;;14.35;11.73;;;;;;;19.59;63.62;100310.06;5036983;27;101393;-86
2021/06/28 03:53:49;;;;;;;12.57;11.27;;;;;;;19.76;62.97;100308.03;5057920;27;98184;-84
2021/06/28 03:56:15;;;;;;;15.98;10.68;;;;;;;19.60;63.45;100309.09;5054869;27;97018;-84
2021/06/28 03:58:43;;;;;;;11.82;10.73;;;;;;;19.55;63.97;100311.25;5043618;27;96807;-83
2021/06/28 04:01:08;;;;;;;12.52;10.88;;;;;;;19.36;64.43;100316.19;5040738;27;100695;-84
2021/06/28 04:03:37;;;;;;;12.75;11.40;;;;;;;19.42;64.25;100310.41;5053714;27;101262;-83
2021/06/28 04:06:05;;;;;;;11.63;10.25;;;;;;;19.48;64.20;100317.97;5041381;27;96633;-83
2021/06/28 04:08:32;;;;;;;14.35;10.45;;;;;;;19.56;64.14;100320.09;5048763;27;97081;-83
2021/06/28 04:10:58;;;;;;;12.05;10.85;;;;;;;19.67;63.87;100323.72;5074802;27;98634;-83
2021/06/28 04:13:23;;;;;;;12.02;10.93;;;;;;;19.76;63.95;100332.00;5036996;27;100018;-85
2021/06/28 04:15:49;;;;;;;13.75;11.70;;;;;;;19.86;63.38;100330.34;5056699;27;96734;-84
2021/06/28 04:18:15;;;;;;;12.15;10.90;;;;;;;19.74;63.59;100334.75;5058467;27;97330;-83
2021/06/28 04:20:41;;;;;;;13.35;11.10;;;;;;;19.80;63.59;100334.31;5039632;27;100316;-83
2021/06/28 04:23:07;;;;;;;17.60;11.68;;;;;;;19.72;63.92;100327.84;5040510;27;100249;-85
2021/06/28 04:25:33;;;;;;;13.38;10.93;;;;;;;19.90;63.37;100332.69;5036952;27;96950;-84
2021/06/28 04:27:59;;;;;;;14.75;10.52;;;;;;;19.81;64.15;100329.84;5058096;27;96924;-84
2021/06/28 04:30:24;;;;;;;13.48;11.15;;;;;;;19.77;64.28;100323.88;5053536;27;101322;-85
2021/06/28 04:32:51;;;;;;;14.80;11.18;;;;;;;20.08;63.36;100333.16;5059862;27;100180;-83
2021/06/28 04:35:22;;;;;;;13.82;11.68;;;;;;;20.01;63.26;100331.06;5041083;27;97315;-84
2021/06/28 04:37:47;;;;;;;;;;;;;;;20.13;63.14;100322.19;5054058;27;96747;-84
2021/06/28 04:40:16;;;;;;;14.98;11.27;;;;;;;20.44;62.23;100323.38;5055138;27;101571;-84
2021/06/28 04:42:42;;;;;;;12.88;11.38;;;;;;;20.69;61.67;100322.44;5057061;27;98409;-84
2021/06/28 04:45:09;;;;;;;15.77;12.25;;;;;;;20.99;60.68;100318.38;5043988;27;96622;-85
2021/06/28 04:47:35;;;;;;;12.40;11.05;;;;;;;20.90;60.45;100314.59;5057211;27;96803;-83
2021/06/28 04:50:03;;;;;;;12.90;10.77;;;;;;;20.82;61.06;100318.81;5040293;27;101225;-83
2021/06/28 04:52:33;;;;;;;13.48;11.18;;;;;;;20.83;61.17;100316.03;5057215;27;101240;-84
2021/06/28 04:55:02;;;;;;;13.38;11.95;;;;;;;21.05;60.61;100317.03;5058675;27;97093;-83
2021/06/28 04:57:27;;;;;;;12.80;11.52;;;;;;;21.02;60.51;100320.78;5055429;27;96898;-84
2021/06/28 04:59:54;;;;;;;13.00;10.70;;;;;;;21.12;60.41;100315.56;5054665;27;98189;-84
2021/06/28 05:02:19;;;;;;;13.80;12.00;;;;;;;21.55;59.86;100307.72;5058555;27;98370;-84
2021/06/28 05:04:47;;;;;;;16.13;12.15;;;;;;;21.89;59.03;100318.38;5053852;27;96671;-83
2021/06/28 05:07:16;;;;;;;14.20;12.13;;;;;;;22.03;57.79;100318.09;5058826;27;96745;-83
2021/06/28 05:09:43;;;;;;;14.15;12.77;;;;;;;22.30;57.00;100311.47;5057197;27;101546;-84
2021/06/28 05:12:10;;;;;;;13.65;12.32;;;;;;;22.21;57.22;100317.59;5054788;27;101659;-82
2021/06/28 05:14:35;;;;;;;14.23;12.90;;;;;;;22.09;57.26;100314.91;5058031;27;96740;-83
2021/06/28 05:17:01;;;;;;;14.77;12.02;;;;;;;21.84;58.01;100305.38;5039896;27;96876;-83
2021/06/28 05:19:27;;;;;;;15.55;12.13;;;;;;;21.83;57.61;100310.84;5054065;27;101267;-84
2021/06/28 05:21:52;;;;;;;18.85;12.07;;;;;;;21.88;57.45;100312.19;5053462;27;101446;-83
2021/06/28 05:24:18;;;;;;;13.48;12.07;;;;;;;22.01;57.75;100308.50;5054778;27;97560;-84
2021/06/28 05:26:43;;;;;;;12.60;11.35;;;;;;;22.18;57.44;100317.84;5055790;27;97156;-83
2021/06/28 05:29:09;;;;;;;12.70;11.40;;;;;;;22.37;56.79;100316.19;5074157;27;98662;-84
2021/06/28 05:31:35;;;;;;;15.18;12.18;;;;;;;22.44;56.38;100315.66;5040079;27;100973;-84
2021/06/28 05:34:00;;;;;;;12.27;10.98;;;;;;;22.50;56.68;100316.00;5050413;27;98005;-82
2021/06/28 05:36:26;;;;;;;16.42;12.13;;;;;;;22.51;57.18;100314.16;5070087;27;96912;-84
2021/06/28 05:38:51;;;;;;;12.25;10.38;;;;;;;22.51;57.05;100304.31;5048514;27;101146;-83
2021/06/28 05:41:17;;;;;;;13.57;11.32;;;;;;;22.44;57.08;100311.16;5038502;27;101227;-82
2021/06/28 05:43:44;;;;;;;16.55;10.93;;;;;;;22.55;56.58;100310.28;5053112;27;97763;-83
2021/06/28 05:46:10;;;;;;;18.48;11.68;;;;;;;22.55;56.71;100319.13;5040140;27;96878;-84
2021/06/28 05:48:35;;;;;;;15.98;10.90;;;;;;;22.79;56.46;100318.03;5052116;27;98122;-83
2021/06/28 05:51:02;;;;;;;17.77;11.95;;;;;;;22.83;56.82;100324.81;5051017;27;101569;-83
2021/06/28 05:53:27;;;;;;;17.80;12.30;;;;;;;22.92;56.28;100323.16;5041144;27;96778;-86
2021/06/28 05:55:53;;;;;;;13.07;11.70;;;;;;;22.95;55.96;100320.25;5046852;27;96853;-84
2021/06/28 05:58:23;;;;;;;14.25;12.07;;;;;;;23.03;55.49;100323.97;5053410;27;98343;-84
2021/06/28 06:00:48;;;;;;;13.55;12.00;;;;;;;23.15;55.29;100322.06;5038305;27;101265;-83
2021/06/28 06:03:14;;;;;;;12.45;11.13;;;;;;;23.03;55.14;100329.31;5040351;27;96882;-83
2021/06/28 06:05:40;;;;;;;13.32;11.98;;;;;;;23.32;53.93;100333.16;5043344;27;96774;-83
2021/06/28 06:08:06;;;;;;;13.77;12.32;;;;;;;23.22;54.37;100323.25;5053502;27;101281;-83
2021/06/28 06:10:31;;;;;;;15.80;12.65;;;;;;;23.35;54.39;100323.00;5048203;27;98485;-84
2021/06/28 06:12:57;;;;;;;17.40;12.23;;;;;;;23.17;55.38;100324.63;5050908;27;96835;-83
2021/06/28 06:15:23;;;;;;;16.70;12.10;;;;;;;23.34;55.13;100332.03;5048182;27;96991;-84
2021/06/28 06:17:49;;;;;;;12.75;11.27;;;;;;;23.41;54.76;100338.53;5034148;27;101344;-84
2021/06/28 06:20:14;;;;;;;12.43;11.00;;;;;;;23.53;54.59;100333.94;5028692;27;101390;-79
2021/06/28 06:22:40;;;;;;;16.23;11.23;;;;;;;23.60;54.41;100337.78;5051524;27;97272;-80
2021/06/28 06:25:07;;;;;;;14.82;10.50;;;;;;;23.75;53.60;100340.97;5027676;27;98124;-80
2021/06/28 06:27:33;;;;;;;13.40;12.07;;;;;;;24.02;53.35;100351.03;5030045;27;101277;-79
2021/06/28 06:29:59;;;;;;;20.20;12.13;;;;;;;24.11;53.13;100355.56;5044112;27;101454;-80
2021/06/28 06:32:29;;;;;;;11.82;10.70;;;;;;;24.02;52.76;100353.72;5031516;27;96844;-79
2021/06/28 06:34:54;;;;;;;18.50;11.35;;;;;;;24.08;52.73;100357.69;5020814;27;97070;-89
2021/06/28 06:37:21;;;;;;;13.88;11.13;;;;;;;24.20;52.87;100361.09;5052694;27;101290;-90
2021/06/28 06:39:47;;;;;;;14.98;12.52;;;;;;;24.15;52.68;100357.00;5046126;27;99056;-90
2021/06/28 06:42:13;;;;;;;13.35;11.55;;;;;;;24.48;52.20;100357.63;5036423;27;96789;-90
2021/06/28 06:44:38;;;;;;;15.77;11.57;;;;;;;24.74;50.85;100360.56;5047477;27;96938;-90
2021/06/28 06:47:04;;;;;;;11.27;10.27;;;;;;;24.95;50.71;100359.56;5037914;27;100099;-89
2021/06/28 06:49:30;;;;;;;15.25;10.43;;;;;;;25.56;49.27;100353.75;5033585;27;100653;-86
2021/06/28 06:51:55;;;;;;;13.50;11.15;;;;;;;26.14;47.86;100358.84;5055681;27;96646;-91
2021/06/28 06:54:21;;;;;;;11.93;10.75;;;;;;;26.62;47.53;100370.28;5036294;27;96934;-90
2021/06/28 06:56:47;;;;;;;15.98;9.95;;;;;;;26.60;47.17;100372.28;5031681;27;101736;-92
2021/06/28 06:59:13;;;;;;;12.60;9.98;;;;;;;26.72;47.41;100368.31;5035638;27;101470;-90
2021/06/28 07:01:40;;;;;;;15.77;10.77;;;;;;;26.49;47.87;100369.78;5030136;27;97150;-93
2021/06/28 07:04:06;;;;;;;16.52;10.75;;;;;;;26.78;47.47;100375.78;5065561;27;97286;-94
2021/06/28 07:06:32;;;;;;;14.85;10.80;;;;;;;27.67;45.41;100373.88;5026677;27;101911;-94
2021/06/28 07:08:58;;;;;;;17.02;10.15;;;;;;;28.29;44.63;100369.03;5040146;27;101463;-94
2021/06/28 07:11:25;;;;;;;14.57;9.38;;;;;;;30.85;40.12;100377.09;5067264;27;97291;-95
2021/06/28 07:13:51;;;;;;;17.42;8.35;;;;;;;30.56;40.98;100380.50;5048507;27;97590;-94
2021/06/28 07:16:18;;;;;;;8.90;8.10;;;;;;;30.73;40.80;100378.50;5041944;27;101231;-92
2021/06/28 07:18:44;;;;;;;18.20;7.88;;;;;;;30.41;40.68;100381.28;5025795;27;101053;-93
2021/06/28 07:21:10;;;;;;;7.45;6.75;;;;;;;30.34;40.58;100385.75;5039913;27;96756;-90
2021/06/28 07:23:36;;;;;;;9.20;6.97;;;;;;;29.57;40.78;100377.44;5056705;27;96877;-87
2021/06/28 07:26:02;;;;;;;13.18;7.57;;;;;;;29.25;41.54;100383.78;5040167;27;101811;-94
2021/06/28 07:28:32;;;;;;;8.15;7.35;;;;;;;29.43;42.06;100384.38;5056434;27;97855;-92
2021/06/28 07:30:58;;;;;;;8.48;6.75;;;;;;;28.89;42.31;100384.97;5054744;27;97008;-87
2021/06/28 07:33:28;;;;;;;9.70;6.45;;;;;;;29.13;42.04;100379.75;5050612;27;96972;-86
2021/06/28 07:35:54;;;;;;;10.80;7.45;;;;;;;29.28;41.19;100378.84;5047276;27;98087;-86
2021/06/28 07:38:20;;;;;;;12.13;7.13;;;;;;;29.28;40.58;100365.34;5052544;27;101465;-88
2021/06/28 07:40:45;;;;;;;9.13;7.07;;;;;;;29.14;41.29;100367.91;5043701;27;97330;-86
2021/06/28 07:43:11;;;;;;;6.22;5.63;;;;;;;28.84;41.74;100363.00;5030832;27;97785;-84
2021/06/28 07:45:37;;;;;;;10.60;7.43;;;;;;;29.10;41.23;100362.84;5019817;27;101426;-84
2021/06/28 07:48:02;;;;;;;7.57;5.90;;;;;;;28.70;41.91;100355.59;5032747;27;101422;-84
2021/06/28 07:50:29;;;;;;;7.93;6.45;;;;;;;28.48;42.95;100367.91;5028844;27;96788;-83
2021/06/28 07:52:55;;;;;;;6.10;5.47;;;;;;;28.60;43.11;100363.88;5052797;27;96668;-91
2021/06/28 07:55:21;;;;;;;10.68;6.43;;;;;;;28.81;42.38;100360.66;5056176;27;101518;-87
2021/06/28 07:57:47;;;;;;;8.27;6.13;;;;;;;29.05;41.83;100361.66;5035139;27;101572;-89
2021/06/28 08:00:15;;;;;;;5.70;5.20;;;;;;;29.06;42.38;100369.63;5047046;27;96599;-87
2021/06/28 08:02:42;;;;;;;8.82;5.80;;;;;;;29.34;42.27;100358.41;5055726;27;97024;-87
2021/06/28 08:05:09;;;;;;;8.32;5.45;;;;;;;29.86;41.36;100365.19;5034110;27;100740;-82
2021/06/28 08:07:34;;;;;;;6.80;5.68;;;;;;;30.01;40.39;100358.81;5049636;27;98244;-81
2021/06/28 08:10:01;;;;;;;6.57;5.95;;;;;;;30.37;39.64;100347.47;5027458;27;96995;-79
2021/06/28 08:12:27;;;;;;;6.32;5.25;;;;;;;30.85;39.15;100345.41;5064095;27;97443;-80
2021/06/28 08:14:52;;;;;;;8.55;5.53;;;;;;;30.83;39.54;100350.16;5043267;27;101937;-82
2021/06/28 08:17:18;;;;;;;7.85;5.55;;;;;;;31.28;37.77;100342.09;5032622;27;101915;-80
2021/06/28 08:19:46;;;;;;;12.40;5.95;;;;;;;31.48;36.83;100339.72;5049420;27;96905;-79
2021/06/28 08:22:13;;;;;;;5.70;5.10;;;;;;;31.43;37.23;100347.56;5048658;27;97102;-78
2021/06/28 08:24:38;;;;;;;6.60;5.38;;;;;;;31.47;36.98;100338.00;5043885;27;101142;-79
2021/06/28 08:27:04;;;;;;;7.50;5.18;;;;;;;31.83;35.27;100337.22;5048684;27;101356;-79
2021/06/28 08:29:30;;;;;;;6.75;4.95;;;;;;;32.15;34.26;100335.97;5060590;27;97334;-80
2021/06/28 08:31:55;;;;;;;5.15;4.68;;;;;;;32.45;34.14;100342.97;5052857;27;97584;-79
2021/06/28 08:34:21;;;;;;;4.28;3.95;;;;;;;32.19;34.96;100338.06;5041492;27;101558;-79
2021/06/28 08:36:47;;;;;;;5.93;4.53;;;;;;;32.40;33.46;100345.38;5051287;27;101704;-79
2021/06/28 08:39:16;;;;;;;5.22;3.33;;;;;;;32.37;34.15;100345.78;5051447;27;96745;-80
2021/06/28 08:41:45;;;;;;;8.60;4.50;;;;;;;31.67;33.11;100341.81;5069181;27;96820;-80
2021/06/28 08:44:12;;;;;;;5.87;4.13;;;;;;;31.65;34.51;100340.31;5036809;27;101059;-80
2021/06/28 08:46:39;;;;;;;5.53;4.07;;;;;;;31.84;33.34;100342.44;5036714;27;101832;-79
2021/06/28 08:49:05;;;;;;;4.70;3.83;;;;;;;32.57;33.08;100337.84;5037397;27;96997;-80
2021/06/28 08:51:31;;;;;;;7.38;5.18;;;;;;;33.10;32.60;100334.72;5051042;27;96951;-79
2021/06/28 08:53:57;;;;;;;5.45;4.97;;;;;;;33.16;33.16;100330.38;5049709;27;101234;-79
2021/06/28 08:56:23;;;;;;;4.88;4.32;;;;;;;33.92;32.45;100336.66;5048991;27;98351;-80
2021/06/28 08:58:49;;;;;;;6.07;4.85;;;;;;;34.38;32.21;100333.19;5024361;27;97069;-79
2021/06/28 09:01:15;;;;;;;10.38;4.78;;;;;;;34.16;32.37;100324.38;5054977;27;97125;-80
2021/06/28 09:03:40;;;;;;;9.38;4.60;;;;;;;33.59;33.22;100323.72;5049218;27;98576;-80
2021/06/28 09:06:07;;;;;;;5.47;3.65;;;;;;;33.75;33.03;100327.16;5051631;27;101698;-80
2021/06/28 09:08:36;;;;;;;5.55;4.45;;;;;;;33.81;32.00;100337.22;5052963;27;97302;-79
2021/06/28 09:11:03;;;;;;;4.55;4.15;;;;;;;33.53;30.47;100335.44;5051027;27;96838;-80
2021/06/28 09:13:56;;;;;;;4.35;3.75;;;;;;;32.64;31.22;100338.75;5050856;27;101882;-79
2021/06/28 09:16:28;;;;;;;4.10;3.70;;;;;;;32.46;32.12;100332.94;5014781;27;100943;-79
2021/06/28 09:18:57;;;;;;;9.90;4.30;;;;;;;32.47;31.92;100330.03;5048867;27;96841;-78
2021/06/28 09:21:38;;;;;;;7.15;4.30;;;;;;;32.12;32.59;100331.75;5057441;27;96952;-79
2021/06/28 09:24:05;;;;;;;6.45;4.28;;;;;;;31.77;33.08;100328.81;5054012;27;101334;-80
2021/06/28 09:26:33;;;;;;;4.30;3.90;;;;;;;31.69;33.02;100323.50;5043424;27;98332;-82
2021/06/28 09:29:01;;;;;;;4.80;4.40;;;;;;;31.60;33.23;100329.22;5039166;27;97142;-81
2021/06/28 09:31:32;;;;;;;5.93;3.88;;;;;;;31.41;33.60;100333.34;5040216;27;96958;-78
2021/06/28 09:34:07;;;;;;;4.43;4.03;;;;;;;31.42;32.31;100335.03;5043605;27;101304;-79
2021/06/28 09:36:42;;;;;;;4.90;4.50;;;;;;;31.38;33.14;100345.41;5057206;27;101149;-78
2021/06/28 09:39:17;;;;;;;7.63;4.78;;;;;;;31.57;32.49;100338.56;5057133;27;96935;-79
2021/06/28 09:41:43;;;;;;;5.30;4.07;;;;;;;31.44;32.67;100341.09;5073548;27;96908;-80
2021/06/28 09:44:11;;;;;;;4.50;3.97;;;;;;;31.63;33.20;100336.97;5033519;27;101448;-81
2021/06/28 09:46:37;;;;;;;4.20;3.80;;;;;;;31.33;31.84;100334.25;5050042;27;100577;-82
2021/06/28 09:49:04;;;;;;;3.85;3.55;;;;;;;31.34;32.32;100328.63;5043057;27;96697;-80
2021/06/28 09:51:34;;;;;;;4.80;3.42;;;;;;;31.35;30.58;100324.91;5035507;27;97256;-80
2021/06/28 09:54:06;;;;;;;4.93;3.47;;;;;;;31.12;31.49;100333.09;5050809;27;101506;-80
2021/06/28 09:56:33;;;;;;;4.50;4.10;;;;;;;31.12;32.12;100330.38;5071505;27;101853;-80
2021/06/28 09:59:23;;;;;;;5.70;3.60;;;;;;;31.12;32.79;100330.38;5036711;27;97309;-81
2021/06/28 10:02:10;;;;;;;3.88;3.40;;;;;;;31.15;32.52;100334.59;5054603;27;97263;-80
2021/06/28 10:04:51;;;;;;;3.30;3.00;;;;;;;31.15;31.76;100331.91;5053248;27;101505;-82
2021/06/28 10:07:26;;;;;;;4.78;3.58;;;;;;;30.96;32.12;100324.31;5051925;27;101433;-80
2021/06/28 10:10:04;;;;;;;5.97;4.07;;;;;;;30.82;31.83;100329.53;5036281;27;97057;-86
2021/06/28 10:12:30;;;;;;;4.68;3.95;;;;;;;30.79;32.13;100334.47;5059219;27;96998;-87
2021/06/28 10:14:56;;;;;;;4.10;3.80;;;;;;;30.59;29.65;100334.09;5039249;27;101303;-85
2021/06/28 10:17:22;;;;;;;3.10;2.85;;;;;;;30.74;30.67;100334.13;5043578;27;98029;-88
2021/06/28 10:19:47;;;;;;;3.17;2.88;;;;;;;31.01;28.87;100328.16;5035925;27;97044;-85
2021/06/28 10:22:13;;;;;;;5.10;3.00;;;;;;;30.91;29.72;100324.88;5051163;27;97103;-87
2021/06/28 10:24:39;;;;;;;3.75;3.42;;;;;;;30.68;29.25;100324.88;5025473;27;101525;-82
2021/06/28 10:27:05;;;;;;;5.82;4.28;;;;;;;30.44;29.71;100325.94;5038435;27;100603;-85
2021/06/28 10:29:34;;;;;;;3.67;3.33;;;;;;;30.35;30.18;100325.16;5052974;27;97153;-87
2021/06/28 10:32:08;;;;;;;3.22;2.95;;;;;;;30.16;32.03;100333.72;5053965;27;96826;-87
2021/06/28 10:34:33;;;;;;;5.05;3.38;;;;;;;30.10;31.87;100327.16;5052739;27;101588;-86
2021/06/28 10:37:01;;;;;;;6.90;4.40;;;;;;;30.18;32.33;100328.97;5033654;27;101284;-81
2021/06/28 10:39:31;;;;;;;4.53;4.03;;;;;;;30.08;32.69;100331.91;5044730;27;97427;-86
2021/06/28 10:41:59;;;;;;;3.95;3.60;;;;;;;29.93;32.99;100321.00;5049439;27;97457;-86
2021/06/28 10:44:26;;;;;;;4.78;4.38;;;;;;;29.96;33.58;100320.66;5039405;27;99285;-86
2021/06/28 10:46:56;;;;;;;8.13;5.20;;;;;;;30.08;33.70;100321.09;5053341;27;98101;-86
2021/06/28 10:49:44;;;;;;;7.30;4.72;;;;;;;29.81;34.49;100311.59;5071762;27;97327;-86
2021/06/28 10:52:10;;;;;;;5.13;4.57;;;;;;;29.73;34.58;100319.75;5052979;27;97071;-85
2021/06/28 10:54:37;;;;;;;5.25;4.68;;;;;;;29.77;34.46;100315.69;5038432;27;101727;-82
2021/06/28 10:57:04;;;;;;;4.75;4.35;;;;;;;29.64;34.37;100316.25;5069982;27;97764;-85
2021/06/28 10:59:32;;;;;;;5.38;4.80;;;;;;;29.58;35.47;100316.91;5050890;27;97160;-86
2021/06/28 11:02:00;;;;;;;5.82;5.32;;;;;;;29.58;36.10;100319.63;5067475;27;97264;-87
2021/06/28 11:04:29;;;;;;;5.30;4.80;;;;;;;29.51;34.51;100313.22;5037702;27;101307;-86
2021/06/28 11:07:05;;;;;;;4.68;4.28;;;;;;;29.46;34.19;100315.63;5069485;27;100434;-82
2021/06/28 11:09:36;;;;;;;4.95;4.45;;;;;;;29.31;35.41;100307.41;5055577;27;97503;-87
2021/06/28 11:12:20;;;;;;;5.93;5.38;;;;;;;29.38;33.82;100313.81;5035889;27;96939;-86
2021/06/28 11:15:00;;;;;;;5.88;4.18;;;;;;;29.32;34.63;100311.78;5060976;27;101509;-86